• Join FlightAware (Why Join?)
  • Login
  • US Flag 
11:45PM EDT


 

Airport Tracker/Info


-or-


 

Live Flight TrackerFlight Track Log ✈ AAL1068 ✈ 10-Apr-2013 ✈ KORD - KMIA

Flight Track Log - Related Links

Times and Time Zones

All times are in EDT time to prevent confusion due to time zone crossing. See the AAL1068 flight status page for this flight to view local times or setup timezone preferences in your user account.

Time Position Orientation Groundspeed Altitude Reporting Facility
EDT Latitude Longitude Course Direction KTS MPH feet Rate Location/Type
09:53PM 41.9990 -87.8950 48° Northeast 153 176 1,200  Level FlightAware
09:54PM 42.0090 -87.8780 52° Northeast 140 161 2,600 2,520 Climbing FlightAware
09:54PM 42.0110 -87.8700 71° East 155 178 2,700 780 Climbing FlightAware
09:54PM 42.0030 -87.8510 120° Southeast 197 227 3,000 1,020 Climbing FlightAware
09:54PM 41.9890 -87.8430 157° South 231 266 3,300 1,320 Climbing FlightAware
09:55PM 41.9580 -87.8440 181° South 263 303 3,900 1,740 Climbing FlightAware
09:55PM 41.9240 -87.8460 183° South 277 319 4,900 1,260 Climbing FlightAware
09:56PM 41.8900 -87.8450 179° South 271 312 5,100 180 Climbing FlightAware
09:56PM 41.8540 -87.8560 193° South 269 310 5,100 660 Level FlightAware
09:57PM 41.8160 -87.8690 194° South 279 321 5,800 2,160 Climbing FlightAware
09:57PM 41.7890 -87.8790 195° South 266 306 7,100 3,120 Climbing FlightAware
09:58PM 41.7550 -87.8940 198° South 252 290 8,700 2,820 Climbing FlightAware
09:58PM 41.7240 -87.9060 196° South 265 305 9,700 2,460 Climbing FlightAware
09:59PM 41.6700 -87.9270 196° South 282 325 11,600 2,700 Climbing FlightAware
09:59PM 41.6200 -87.9460 196° South 279 321 13,600 3,000 Climbing FlightAware
10:00PM 41.6000 -87.9500 189° South 281 323 14,400 2,940 Climbing FlightAware
10:00PM 41.5510 -87.9410 172° South 282 325 16,300 2,700 Climbing FlightAware
10:01PM 41.4880 -87.9250 169° South 291 335 18,300 2,400 Climbing FlightAware
10:02PM 41.4350 -87.9120 170° South 301 346 19,700 1,560 Climbing FlightAware
10:02PM 41.3760 -87.8970 169° South 330 380 20,400 1,020 Climbing FlightAware
10:03PM 41.3070 -87.8790 169° South 365 420 21,200 1,260 Climbing FlightAware
10:03PM 41.2800 -87.8670 162° South 379 436 21,700 1,920 Climbing FlightAware
10:04PM 41.2650 -87.8530 145° Southeast 393 452 22,000 2,040 Climbing FlightAware
10:04PM 41.2200 -87.7770 128° Southeast 406 467 23,400 1,920 Climbing FlightAware
10:05PM 41.1700 -87.6860 126° Southeast 413 475 24,800 1,680 Climbing FlightAware
10:06PM 41.1190 -87.5940 126° Southeast 421 484 26,000 1,800 Climbing FlightAware
10:06PM 41.0720 -87.5080 126° Southeast 421 484 27,400 1,980 Climbing FlightAware
10:07PM 41.0270 -87.4230 125° Southeast 416 479 28,700 1,800 Climbing FlightAware
10:07PM 41.0050 -87.3980 139° Southeast 393 452 29,100 1,200 Climbing FlightAware
10:08PM 40.9300 -87.3700 164° South 388 447 29,900 900 Climbing FlightAware
10:09PM 40.8590 -87.3490 167° South 404 465 30,400 720 Climbing FlightAware
10:09PM 40.7790 -87.3240 167° South 412 474 31,000 840 Climbing FlightAware
10:10PM 40.6750 -87.2920 167° South 422 486 31,800 1,080 Climbing FlightAware
10:11PM 40.5870 -87.2650 167° South 426 490 32,800 1,080 Climbing FlightAware
10:12PM 40.5070 -87.2410 167° South 429 494 33,500 1,080 Climbing FlightAware
10:13PM 40.4260 -87.2170 167° South 427 491 34,400 1,200 Climbing FlightAware
10:13PM 40.3470 -87.1930 167° South 429 494 35,100 780 Climbing FlightAware
10:14PM 40.2420 -87.1620 167° South 433 498 35,700 780 Climbing FlightAware
10:15PM 40.1510 -87.1340 167° South 433 498 36,400 780 Climbing FlightAware
10:16PM 40.0470 -87.1030 167° South 431 496 37,000 360 Climbing FlightAware
10:17PM 39.9630 -87.0780 167° South 426 490 37,000  Level FlightAware
10:17PM 39.8800 -87.0540 167° South 421 484 37,000  Level FlightAware
10:18PM 39.8020 -87.0300 167° South 422 486 37,000  Level FlightAware
10:19PM 39.7230 -87.0070 167° South 423 487 37,000  Level FlightAware
10:19PM 39.6430 -86.9830 167° South 423 487 37,000  Level FlightAware
10:20PM 39.5660 -86.9610 168° South 423 487 37,000  Level FlightAware
10:21PM 39.4780 -86.9350 167° South 426 490 37,000  Level FlightAware
10:21PM 39.4010 -86.9120 167° South 432 497 37,000  Level FlightAware
10:22PM 39.3140 -86.8870 167° South 434 499 37,000  Level FlightAware
10:23PM 39.2620 -86.8720 167° South 433 498 37,000  Level FlightAware
10:23PM 39.1650 -86.8430 167° South 435 501 37,000  Level FlightAware
10:24PM 39.0870 -86.8210 168° South 436 502 37,000  Level FlightAware
10:25PM 39.0080 -86.7980 167° South 437 503 37,000  Level FlightAware
10:25PM 38.9220 -86.7730 167° South 441 507 37,000  Level FlightAware
10:26PM 38.8390 -86.7500 168° South 444 511 37,000  Level FlightAware
10:27PM 38.7620 -86.7270 167° South 444 511 37,000  Level FlightAware
10:28PM 38.6680 -86.7000 167° South 447 514 37,000  Level FlightAware
10:28PM 38.5860 -86.6770 168° South 448 516 37,000  Level FlightAware
10:29PM 38.4980 -86.6510 167° South 451 519 37,000  Level FlightAware
10:30PM 38.4160 -86.6280 168° South 452 520 37,000  Level FlightAware
10:30PM 38.3330 -86.6050 168° South 453 521 37,000  Level FlightAware
10:31PM 38.2440 -86.5800 168° South 451 519 37,000  Level FlightAware
10:32PM 38.1610 -86.5560 167° South 447 514 37,000  Level FlightAware
10:32PM 38.0680 -86.5300 168° South 443 510 37,000  Level FlightAware
10:33PM 37.9900 -86.5080 167° South 448 516 37,000  Level FlightAware
10:34PM 37.8980 -86.4820 167° South 454 522 37,000  Level FlightAware
10:35PM 37.8150 -86.4590 168° South 457 526 37,000  Level FlightAware
10:35PM 37.7320 -86.4360 168° South 461 531 37,000  Level FlightAware
10:36PM 37.6360 -86.4090 167° South 460 529 37,000  Level FlightAware
10:37PM 37.5540 -86.3860 167° South 458 527 37,000  Level FlightAware
10:37PM 37.4770 -86.3650 168° South 456 525 37,000  Level FlightAware
10:38PM 37.3810 -86.3380 167° South 454 522 37,000  Level FlightAware
10:39PM 37.2980 -86.3150 168° South 453 521 37,000  Level FlightAware
10:39PM 37.2050 -86.2900 168° South 453 521 37,000  Level FlightAware
10:40PM 37.1527 -86.2755 168° South 452 520 37,000  Level FlightAware ADS-B
10:40PM 37.0895 -86.2582 168° South 450 518 37,000  Level FlightAware ADS-B
10:41PM 37.0284 -86.2414 168° South 450 518 37,000  Level FlightAware ADS-B
10:41PM 36.9641 -86.2237 168° South 449 517 37,000  Level FlightAware ADS-B
10:43PM 36.8191 -86.1841 168° South 448 516 37,000  Level FlightAware ADS-B
10:43PM 36.7567 -86.1671 168° South 446 513 37,000  Level FlightAware ADS-B
10:44PM 36.6961 -86.1508 168° South 445 512 37,000  Level FlightAware ADS-B
10:44PM 36.6547 -86.1396 168° South 444 511 37,000  Level FlightAware ADS-B
10:44PM 36.6012 -86.1252 168° South 445 512 37,000  Level FlightAware ADS-B
10:45PM 36.5398 -86.1086 168° South 444 511 37,000  Level FlightAware ADS-B
10:45PM 36.4794 -86.0920 168° South 446 513 37,000  Level FlightAware ADS-B
10:46PM 36.3570 -86.0590 168° South 447 514 37,000  Level FlightAware
10:47PM 36.3089 -86.0464 168° South 447 514 37,000  Level FlightAware ADS-B
10:47PM 36.2473 -86.0300 168° South 456 525 37,000  Level FlightAware ADS-B
10:48PM 36.1844 -86.0130 168° South 460 529 37,000  Level FlightAware ADS-B
10:48PM 36.1210 -85.9960 168° South 464 534 37,000  Level FlightAware ADS-B
10:49PM 36.0571 -85.9789 168° South 468 539 37,000  Level FlightAware ADS-B
10:50PM 35.9416 -85.9480 168° South 470 541 37,000  Level FlightAware ADS-B
10:50PM 35.8600 -85.9266 168° South 472 543 37,000  Level FlightAware ADS-B
10:51PM 35.7959 -85.9096 168° South 470 541 37,000  Level FlightAware ADS-B
10:51PM 35.7294 -85.8920 168° South 467 537 37,000  Level FlightAware ADS-B
10:52PM 35.6655 -85.8750 168° South 466 536 37,000  Level FlightAware ADS-B
10:52PM 35.6019 -85.8581 168° South 463 533 37,000  Level FlightAware ADS-B
10:53PM 35.5360 -85.8409 168° South 460 529 37,000  Level FlightAware ADS-B
10:53PM 35.4716 -85.8240 168° South 458 527 37,000 -300 Level FlightAware ADS-B
10:54PM 35.4056 -85.8067 168° South 460 529 36,700 -960 Descending FlightAware ADS-B
10:55PM 35.3417 -85.7901 168° South 468 539 36,000 -1,260 Descending FlightAware ADS-B
10:55PM 35.2746 -85.7725 168° South 473 544 35,400 -900 Descending FlightAware ADS-B
10:56PM 35.2076 -85.7550 168° South 473 544 35,100 -420 Descending FlightAware ADS-B
10:56PM 35.1433 -85.7381 168° South 475 547 35,000 -120 Descending FlightAware ADS-B
10:57PM 35.0782 -85.7212 168° South 474 545 35,000  Level FlightAware ADS-B
10:57PM 35.0132 -85.7043 168° South 473 544 35,000  Level FlightAware ADS-B
10:58PM 34.9419 -85.6858 168° South 472 543 35,000  Level FlightAware ADS-B
10:58PM 34.8712 -85.6675 168° South 472 543 35,000 -420 Level FlightAware ADS-B
10:59PM 34.8024 -85.6495 168° South 475 547 34,600 -960 Descending FlightAware ADS-B
10:59PM 34.7366 -85.6329 168° South 481 554 34,000 -1,020 Descending FlightAware ADS-B
11:00PM 34.6705 -85.6161 168° South 484 557 33,600 -900 Descending FlightAware ADS-B
11:00PM 34.6039 -85.5991 168° South 479 551 33,100 -1,020 Descending FlightAware ADS-B
11:01PM 34.5394 -85.5821 168° South 471 542 32,600 -1,200 Descending FlightAware ADS-B
11:01PM 34.4756 -85.5654 168° South 466 536 31,900 -1,440 Descending FlightAware ADS-B
11:02PM 34.3927 -85.5440 168° South 462 532 31,000 -720 Descending FlightAware ADS-B
11:02PM 34.3193 -85.5255 168° South 460 529 31,000  Level FlightAware ADS-B
11:03PM 34.2560 -85.5096 168° South 459 528 31,000  Level FlightAware ADS-B
11:04PM 34.1924 -85.4934 168° South 461 531 31,000  Level FlightAware ADS-B
11:04PM 34.1124 -85.4730 168° South 465 535 31,000  Level FlightAware ADS-B
11:05PM 34.0284 -85.4517 168° South 468 539 31,000  Level FlightAware ADS-B
11:05PM 33.9618 -85.4348 168° South 470 541 31,000  Level FlightAware ADS-B
11:06PM 33.8340 -85.4030 168° South 473 544 31,000  Level FlightAware
11:07PM 33.7620 -85.3840 168° South 474 545 31,000  Level FlightAware
11:08PM 33.6480 -85.3560 168° South 464 534 31,000  Level FlightAware
11:08PM 33.5640 -85.3340 168° South 462 532 31,000  Level FlightAware
11:09PM 33.4700 -85.3110 168° South 461 531 31,000  Level FlightAware
11:10PM 33.3920 -85.2920 169° South 459 528 31,000  Level FlightAware
11:11PM 33.2890 -85.2660 168° South 458 527 31,000  Level FlightAware
11:11PM 33.2050 -85.2450 168° South 457 526 31,000  Level FlightAware
11:12PM 33.1220 -85.2240 168° South 463 533 31,000  Level FlightAware
11:13PM 33.0280 -85.1990 167° South 466 536 31,000  Level FlightAware
11:13PM 32.9460 -85.1710 164° South 467 537 31,000  Level FlightAware
11:14PM 32.8320 -85.1320 164° South 468 539 31,000  Level FlightAware
11:15PM 32.7320 -85.0980 164° South 469 540 31,000  Level FlightAware
11:16PM 32.6610 -85.0740 164° South 469 540 31,000  Level FlightAware
11:16PM 32.5900 -85.0490 163° South 469 540 31,000  Level FlightAware
11:17PM 32.5190 -85.0250 164° South 469 540 31,000  Level FlightAware
11:18PM 32.4480 -85.0010 164° South 469 540 31,000  Level FlightAware
11:18PM 32.3230 -84.9590 164° South 469 540 31,000  Level FlightAware
11:19PM 32.2360 -84.9280 163° South 469 540 31,000  Level FlightAware
11:20PM 32.1390 -84.8970 165° South 31,000  Level FlightAware
11:20PM 32.1028 -84.8839 165° South 470 541 31,000  Level Jacksonville Center
11:21PM 31.9783 -84.8422 164° South 470 541 31,000  Level Jacksonville Center
11:22PM 31.8514 -84.8028 165° South 470 541 31,000  Level Jacksonville Center
11:23PM 31.7247 -84.7611 164° South 470 541 31,000  Level Jacksonville Center
11:29PM 31.0390 -84.5310 164° South 479 551 31,000  Level FlightAware
11:33PM 30.4450 -84.2310 156° South 490 564 31,000  Level FlightAware
11:35PM 30.1970 -84.0790 152° Southeast 492 566 31,000  Level FlightAware
11:36PM 30.1130 -84.0280 152° Southeast 494 568 31,000  Level FlightAware
11:37PM 30.0220 -83.9720 152° Southeast 494 568 31,000  Level FlightAware
11:37PM 29.9370 -83.9210 153° Southeast 495 570 31,000  Level FlightAware
11:38PM 29.8570 -83.8720 152° Southeast 489 563 31,000  Level FlightAware
11:39PM 29.7650 -83.8170 153° Southeast 489 563 31,000  Level FlightAware
11:40PM 29.6820 -83.7660 152° Southeast 489 563 31,000  Level FlightAware
11:40PM 29.6010 -83.7180 153° Southeast 490 564 31,000  Level FlightAware
11:41PM 29.5090 -83.6620 152° Southeast 490 564 31,000  Level FlightAware
11:42PM 29.4280 -83.6130 152° Southeast 491 565 31,000  Level FlightAware
11:42PM 29.3340 -83.5570 153° Southeast 492 566 31,000  Level FlightAware
11:43PM 29.2200 -83.4890 152° Southeast 491 565 31,000  Level FlightAware
11:44PM 29.1390 -83.4410 153° Southeast 492 566 31,000  Level FlightAware
11:45PM 29.0270 -83.3740 152° Southeast 493 567 31,000  Level FlightAware
11:46PM 28.8510 -83.2700 153° Southeast 494 568 31,000  Level FlightAware
11:47PM 28.7060 -83.1840 153° Southeast 505 581 31,000  Level FlightAware
11:48PM 28.5790 -83.1100 153° Southeast 505 581 31,000  Level FlightAware
11:50PM 28.4160 -83.0140 153° Southeast 506 582 31,000  Level FlightAware
11:51PM 28.2690 -82.9280 153° Southeast 505 581 31,000  Level FlightAware
11:52PM 28.1240 -82.8430 153° Southeast 505 581 31,000  Level FlightAware
11:54PM 27.9470 -82.7420 153° Southeast 494 568 31,000  Level FlightAware
11:55PM 27.7930 -82.6800 160° South 497 572 31,000  Level FlightAware
11:56PM 27.6640 -82.5750 144° Southeast 503 579 31,000  Level FlightAware
11:57PM 27.5770 -82.4940 140° Southeast 503 579 31,000  Level FlightAware
11:58PM 27.4780 -82.4020 140° Southeast 509 586 31,000  Level FlightAware
11:58PM 27.4050 -82.3350 141° Southeast 509 586 31,000  Level FlightAware
11:59PM 27.3230 -82.2600 141° Southeast 508 585 31,000  Level FlightAware
12:00AM 27.2520 -82.1950 141° Southeast 508 585 31,000  Level FlightAware
12:00AM 27.1790 -82.1270 140° Southeast 508 585 31,000  Level FlightAware
12:01AM 27.0950 -82.0510 141° Southeast 508 585 31,000  Level FlightAware
12:02AM 27.0210 -81.9830 141° Southeast 508 585 31,000 -240 Level FlightAware
12:02AM 26.9400 -81.9090 141° Southeast 505 581 30,700 -1,140 Descending FlightAware
12:03AM 26.8690 -81.8450 141° Southeast 506 582 29,400 -2,280 Descending FlightAware
12:04AM 26.7680 -81.7530 141° Southeast 491 565 27,100 -2,400 Descending FlightAware
12:05AM 26.6900 -81.6820 141° Southeast 481 554 25,400 -1,380 Descending FlightAware
12:06AM 26.6060 -81.6050 141° Southeast 469 540 24,800 -420 Descending FlightAware
12:06AM 26.5490 -81.5520 140° Southeast 469 540 24,800  Level FlightAware
12:07AM 26.4930 -81.4990 140° Southeast 469 540 24,800  Level FlightAware
12:08AM 26.4360 -81.4460 140° Southeast 469 540 24,800 -5,280 Level FlightAware
12:08AM 26.3480 -81.3740 144° Southeast 403 464 17,400 -5,100 Descending FlightAware
12:10AM 26.2530 -81.2890 141° Southeast 377 434 15,100 -2,100 Descending FlightAware
12:10AM 26.2040 -81.2450 141° Southeast 369 425 13,800 -1,920 Descending FlightAware
12:11AM 26.1370 -81.1850 141° Southeast 355 409 12,400 -1,560 Descending FlightAware
12:12AM 26.0900 -81.1440 142° Southeast 355 409 11,600 -1,380 Descending FlightAware
12:13AM 25.9970 -81.0600 141° Southeast 350 403 9,900 -1,020 Descending FlightAware
12:13AM 25.9600 -81.0280 142° Southeast 338 389 9,900  Level FlightAware
12:14AM 25.9090 -80.9820 141° Southeast 339 390 9,900  Level FlightAware
12:15AM 25.8680 -80.8760 113° Southeast 313 360 9,900 -780 Level FlightAware
12:16AM 25.8490 -80.7660 101° East 284 327 8,200 -1,500 Descending FlightAware
12:19AM 25.8150 -80.5870 102° East 240 276 4,800 -1,440 Descending FlightAware
12:20AM 25.7970 -80.4880 101° East 199 229 3,000 -1,080 Descending FlightAware
12:22AM 25.7980 -80.3730 89° East 138 159 1,100 -900 Descending FlightAware
12:24AM 25.8010 -80.3050 87° East 144 166 -720 Descending FlightAware
12:24AM 25.8010 -80.2960 90° East 138 159  Level FlightAware